Main page
METAR-TAF:

METAR-TAF

Airports :

Abraham Lincoln Capital Airport

Springfield, Illinois, United States

latitude: 39-50-43N, longitude: 089-41-02W, elevation: 597 ft

Current weather observation

The report was made 51 minutes ago, at 04:52 UTC
Temperature
Pressure 30.19 in. Hg

METAR: KSPI 220452Z AUTO A3019 RMK AO2 SLPNO PWINO FZRANO $

Time: 00:43 (05:43 UTC)

Forecast

The report was made 23 minutes ago, at 05:20 UTC
Forecast valid from 22 at 06 UTC to 23 at 06 UTC
Wind 3 mph from the Southwest
Visibility: 6 miles
Clear sky
From 22 at 1700 UTC
Wind 14 mph from the Southwest with gusts up to 25 mph
Visibility: 6 miles
Scattered clouds at a height of 25000 ft
From 23 at 0300 UTC
Wind 14 mph from the South with gusts up to 25 mph
Visibility: 6 miles
Broken clouds at a height of 12000 ft

TAF: KSPI 220520Z 2206/2306 23003KT P6SM SKC FM221700 22012G22KT P6SM SCT250 FM230300 19012G22KT P6SM BKN120

Weather observations and forecasts of more than 4000 airports (METAR and TAF reports).

The available stations are represented by yellow and red dots on the map.

Hover mouse over dot to see the name of the station.

Then click to see weather observations and forecasts.

To change the map : click on the green buttons with a black cross to zoom in, on the green button with a dash to zoom out, or on the green arrows for adjacent maps.


METAR-TAF: